createdAt,value
2019-01-12T00:02:32.784Z,7.60
2019-01-12T00:05:03.551Z,5.50
2019-01-12T00:07:34.190Z,5.27
2019-01-12T00:10:06.079Z,5.85
2019-01-12T00:12:36.626Z,4.87
2019-01-12T00:15:07.896Z,5.80
2019-01-12T00:17:38.354Z,5.63
2019-01-12T00:20:10.262Z,5.55
2019-01-12T00:22:40.714Z,6.10
2019-01-12T00:25:11.546Z,6.35
2019-01-12T00:27:42.207Z,6.23
2019-01-12T00:30:13.451Z,6.73
2019-01-12T00:32:44.066Z,6.50
2019-01-12T00:35:14.597Z,6.57
2019-01-12T00:37:45.251Z,6.73
2019-01-12T00:40:15.870Z,6.53
2019-01-12T00:42:46.290Z,7.30
2019-01-12T00:45:16.809Z,7.17
2019-01-12T00:47:47.344Z,7.43
2019-01-12T00:50:18.807Z,6.73
2019-01-12T00:52:49.198Z,6.80
2019-01-12T00:55:19.641Z,7.00
2019-01-12T00:57:50.339Z,5.93
2019-01-12T01:00:22.351Z,6.40
2019-01-12T01:02:53.092Z,5.83
2019-01-12T01:05:23.522Z,6.67
2019-01-12T01:07:55.726Z,6.58
2019-01-12T01:10:26.258Z,6.60
2019-01-12T01:12:57.288Z,6.40
2019-01-12T01:15:27.676Z,6.43
2019-01-12T01:17:58.444Z,6.47
2019-01-12T01:20:29.071Z,6.40
2019-01-12T01:22:59.587Z,6.30
2019-01-12T01:25:30.307Z,5.80
2019-01-12T01:28:00.993Z,6.73
2019-01-12T01:30:31.402Z,6.53
2019-01-12T01:33:02.018Z,6.17
2019-01-12T01:35:32.478Z,5.90
2019-01-12T01:38:03.175Z,5.50
2019-01-12T01:40:33.593Z,5.30
2019-01-12T01:43:04.312Z,5.97
2019-01-12T01:45:34.752Z,6.03
2019-01-12T01:48:05.537Z,5.78
2019-01-12T01:50:35.989Z,5.13
2019-01-12T01:53:06.776Z,5.80
2019-01-12T01:55:37.280Z,5.53
2019-01-12T01:58:07.977Z,5.35
2019-01-12T02:00:38.422Z,5.77
2019-01-12T02:03:10.487Z,5.35
2019-01-12T02:05:40.997Z,6.40
2019-01-12T02:08:11.618Z,6.07
2019-01-12T02:10:42.281Z,5.90
2019-01-12T02:13:13.013Z,6.90
2019-01-12T02:15:43.438Z,6.87
2019-01-12T02:18:13.915Z,6.17
2019-01-12T02:20:44.551Z,5.37
2019-01-12T02:23:14.989Z,5.97
2019-01-12T02:25:45.428Z,4.90
2019-01-12T02:28:15.884Z,5.13
2019-01-12T02:30:46.425Z,4.67
2019-01-12T02:33:16.918Z,5.27
2019-01-12T02:35:47.526Z,5.07
2019-01-12T02:38:18.062Z,5.27
2019-01-12T02:40:48.479Z,4.80
2019-01-12T02:43:18.997Z,4.13
2019-01-12T02:45:49.576Z,3.70
2019-01-12T02:48:20.303Z,4.08
2019-01-12T02:50:50.707Z,4.17
2019-01-12T02:53:21.180Z,3.60
2019-01-12T02:55:51.626Z,3.87
2019-01-12T02:58:22.403Z,4.15
2019-01-12T03:00:52.838Z,4.37
2019-01-12T03:03:26.563Z,3.70
2019-01-12T03:05:57.259Z,5.03
2019-01-12T03:08:27.664Z,4.53
2019-01-12T03:10:58.121Z,5.00
2019-01-12T03:13:28.546Z,4.63
2019-01-12T03:15:59.341Z,5.30
2019-01-12T03:18:29.750Z,5.40
2019-01-12T03:21:00.221Z,5.35
2019-01-12T03:23:30.876Z,5.83
2019-01-12T03:26:01.616Z,6.00
2019-01-12T03:28:32.100Z,6.20
2019-01-12T03:31:02.543Z,5.47
2019-01-12T03:33:33.025Z,5.43
2019-01-12T03:36:03.968Z,4.62
2019-01-12T03:38:34.762Z,5.13
2019-01-12T03:41:05.568Z,5.47
2019-01-12T03:43:36.143Z,5.57
2019-01-12T03:46:06.717Z,5.37
2019-01-12T03:48:38.645Z,4.47
2019-01-12T03:51:09.627Z,5.43
2019-01-12T03:53:40.187Z,5.70
2019-01-12T03:56:11.040Z,4.92
2019-01-12T03:58:41.791Z,4.80
2019-01-12T04:01:12.313Z,5.28
2019-01-12T04:03:42.853Z,5.30
2019-01-12T04:06:14.176Z,4.92
2019-01-12T04:08:44.873Z,4.40
2019-01-12T04:11:15.425Z,4.10
2019-01-12T04:13:45.926Z,4.70
2019-01-12T04:16:16.736Z,4.67
2019-01-12T04:18:47.238Z,4.90
2019-01-12T04:21:17.763Z,4.63
2019-01-12T04:23:48.315Z,4.43
2019-01-12T04:26:18.889Z,5.60
2019-01-12T04:28:49.684Z,4.42
2019-01-12T04:31:20.217Z,4.23
2019-01-12T04:33:50.824Z,5.33
2019-01-12T04:36:21.668Z,4.95
2019-01-12T04:38:52.184Z,4.93
2019-01-12T04:41:22.906Z,4.03
2019-01-12T04:43:53.455Z,4.10
2019-01-12T04:46:24.047Z,3.83
2019-01-12T04:48:56.122Z,4.50
2019-01-12T04:51:26.786Z,4.10
2019-01-12T04:53:57.642Z,4.00
2019-01-12T04:56:28.121Z,4.33
2019-01-12T04:58:58.958Z,4.50
2019-01-12T05:01:29.783Z,5.10
2019-01-12T05:04:00.347Z,5.20
2019-01-12T05:06:30.918Z,4.63
2019-01-12T05:09:02.143Z,4.87
2019-01-12T05:11:32.978Z,4.17
2019-01-12T05:14:03.795Z,4.72
2019-01-12T05:16:34.312Z,4.83
2019-01-12T05:19:05.143Z,4.90
2019-01-12T05:21:35.769Z,4.37
2019-01-12T05:24:06.296Z,4.03
2019-01-12T05:26:36.963Z,4.33
2019-01-12T05:29:07.508Z,4.80
2019-01-12T05:31:38.088Z,4.27
2019-01-12T05:34:09.043Z,4.33
2019-01-12T05:36:39.844Z,4.17
2019-01-12T05:39:10.456Z,4.55
2019-01-12T05:41:41.126Z,4.27
2019-01-12T05:44:11.913Z,3.45
2019-01-12T05:46:42.446Z,3.70
2019-01-12T05:49:13.231Z,3.40
2019-01-12T05:51:43.897Z,4.27
2019-01-12T05:54:14.431Z,3.83
2019-01-12T05:56:45.171Z,4.00
2019-01-12T05:59:15.683Z,4.13
2019-01-12T06:01:46.263Z,3.87
2019-01-12T06:04:16.978Z,4.00
2019-01-12T06:06:47.601Z,3.87
2019-01-12T06:09:18.124Z,4.50
2019-01-12T06:11:48.680Z,5.07
2019-01-12T06:14:19.258Z,4.50
2019-01-12T06:16:50.002Z,4.73
2019-01-12T06:19:20.495Z,4.83
2019-01-12T06:21:51.020Z,5.13
2019-01-12T06:24:21.563Z,5.40
2019-01-12T06:26:52.164Z,4.87
2019-01-12T06:29:22.741Z,4.93
2019-01-12T06:31:53.280Z,5.80
2019-01-12T06:34:24.115Z,6.80
2019-01-12T06:36:56.305Z,5.92
2019-01-12T06:39:27.014Z,5.73
2019-01-12T06:41:57.830Z,5.93
2019-01-12T06:44:28.341Z,5.60
2019-01-12T06:46:59.252Z,6.17
2019-01-12T06:49:29.989Z,5.77
2019-01-12T06:52:00.557Z,6.08
2019-01-12T06:54:31.084Z,6.03
2019-01-12T06:57:01.983Z,5.87
2019-01-12T06:59:32.501Z,5.50
2019-01-12T07:02:03.311Z,5.35
2019-01-12T07:04:34.106Z,6.03
2019-01-12T07:07:04.659Z,5.35
2019-01-12T07:09:38.468Z,5.90
2019-01-12T07:12:09.263Z,5.60
2019-01-12T07:14:39.777Z,5.43
2019-01-12T07:17:11.613Z,5.07
2019-01-12T07:19:42.224Z,4.83
2019-01-12T07:22:12.800Z,4.72
2019-01-12T07:24:43.478Z,5.67
2019-01-12T07:27:14.189Z,4.83
2019-01-12T07:29:44.785Z,5.80
2019-01-12T07:32:15.355Z,4.67
2019-01-12T07:34:46.303Z,5.03
2019-01-12T07:37:17.159Z,4.87
2019-01-12T07:39:47.677Z,5.03
2019-01-12T07:42:18.316Z,4.23
2019-01-12T07:44:48.863Z,4.57
2019-01-12T07:47:19.371Z,3.80
2019-01-12T07:49:50.281Z,4.50
2019-01-12T07:52:21.093Z,5.03
2019-01-12T07:54:51.663Z,4.90
2019-01-12T07:57:22.202Z,4.20
2019-01-12T07:59:52.729Z,4.87
2019-01-12T08:02:23.422Z,4.97
2019-01-12T08:04:54.199Z,5.10
2019-01-12T08:07:26.510Z,4.77
2019-01-12T08:09:57.349Z,5.03
2019-01-12T08:12:28.314Z,5.87
2019-01-12T08:14:58.891Z,6.70
2019-01-12T08:17:29.535Z,6.23
2019-01-12T08:20:00.372Z,5.83
2019-01-12T08:22:32.709Z,7.00
2019-01-12T08:25:03.727Z,6.10
2019-01-12T08:27:34.301Z,5.90
2019-01-12T08:30:07.054Z,5.67
2019-01-12T08:32:37.654Z,5.23
2019-01-12T08:35:09.451Z,6.45
2019-01-12T08:37:40.313Z,5.58
2019-01-12T08:40:12.349Z,5.92
2019-01-12T08:42:43.027Z,6.17
2019-01-12T08:45:14.797Z,5.80
2019-01-12T08:47:45.444Z,6.13
2019-01-12T08:50:19.259Z,5.90
2019-01-12T08:52:50.285Z,5.27
2019-01-12T08:55:20.844Z,5.23
2019-01-12T08:57:52.311Z,5.07
2019-01-12T09:00:24.186Z,5.37
2019-01-12T09:02:55.840Z,4.87
2019-01-12T09:05:26.605Z,5.03
2019-01-12T09:07:57.416Z,4.33
2019-01-12T09:10:28.033Z,5.37
2019-01-12T09:12:58.770Z,5.43
2019-01-12T09:15:30.059Z,5.53
2019-01-12T09:18:00.739Z,5.67
2019-01-12T09:20:32.782Z,5.00
2019-01-12T09:23:03.611Z,4.87
2019-01-12T09:25:34.489Z,4.33
2019-01-12T09:28:05.370Z,5.43
2019-01-12T09:30:35.940Z,5.00
2019-01-12T09:33:06.759Z,4.70
2019-01-12T09:35:37.743Z,4.90
2019-01-12T09:38:08.882Z,5.12
2019-01-12T09:40:39.667Z,4.60
2019-01-12T09:43:10.656Z,5.25
2019-01-12T09:45:41.550Z,4.97
2019-01-12T09:48:12.467Z,4.87
2019-01-12T09:50:43.128Z,6.50
2019-01-12T09:53:13.940Z,5.13
2019-01-12T09:55:44.496Z,4.83
2019-01-12T09:58:15.080Z,4.97
2019-01-12T10:00:45.953Z,4.93
2019-01-12T10:03:16.497Z,5.90
2019-01-12T10:05:47.046Z,5.57
2019-01-12T10:08:19.126Z,5.90
2019-01-12T10:10:49.679Z,5.20
2019-01-12T10:13:20.463Z,5.90
2019-01-12T10:15:51.124Z,5.53
2019-01-12T10:18:21.734Z,5.43
2019-01-12T10:20:52.623Z,6.50
2019-01-12T10:23:23.181Z,5.97
2019-01-12T10:25:55.224Z,6.10
2019-01-12T10:28:25.972Z,6.77
2019-01-12T10:30:57.096Z,6.33
2019-01-12T10:33:27.691Z,6.20
2019-01-12T10:35:58.853Z,6.28
2019-01-12T10:38:30.388Z,6.67
2019-01-12T10:41:00.967Z,6.20
2019-01-12T10:43:31.660Z,6.90
2019-01-12T10:46:02.789Z,7.10
2019-01-12T10:48:33.602Z,6.87
2019-01-12T10:51:04.623Z,7.45
2019-01-12T10:55:47.371Z,6.73
2019-01-12T10:58:15.320Z,6.60
2019-01-12T11:00:43.084Z,7.60
2019-01-12T11:03:10.884Z,6.87
2019-01-12T11:05:38.707Z,7.10
2019-01-12T11:08:07.004Z,7.50
2019-01-12T11:10:35.092Z,7.37
2019-01-12T11:13:03.335Z,6.50
2019-01-12T11:15:31.252Z,8.17
2019-01-12T11:17:59.132Z,6.97
2019-01-12T11:20:27.173Z,6.67
2019-01-12T11:22:55.550Z,7.17
2019-01-12T11:25:23.397Z,7.40
2019-01-12T11:27:51.261Z,5.07
2019-01-12T11:30:20.445Z,6.87
2019-01-12T11:32:48.268Z,6.10
2019-01-12T11:35:16.212Z,6.60
2019-01-12T11:37:44.370Z,6.37
2019-01-12T11:40:15.963Z,6.07
2019-01-12T11:42:43.869Z,6.73
2019-01-12T11:45:12.230Z,5.93
2019-01-12T11:47:41.439Z,6.50
2019-01-12T11:50:14.841Z,6.43
2019-01-12T11:52:44.997Z,5.33
2019-01-12T11:55:14.516Z,5.77
2019-01-12T11:57:43.446Z,6.13
2019-01-12T12:00:20.961Z,5.30
2019-01-12T12:02:49.161Z,5.97
2019-01-12T12:05:17.497Z,6.03
2019-01-12T12:07:46.138Z,5.70
2019-01-12T12:10:16.232Z,5.67
2019-01-12T12:12:44.018Z,6.73
2019-01-12T12:15:13.054Z,6.37
2019-01-12T12:17:40.843Z,6.07
2019-01-12T12:20:21.538Z,5.43
2019-01-12T12:22:49.568Z,5.57
2019-01-12T12:25:20.218Z,5.50
2019-01-12T12:27:49.229Z,5.53
2019-01-12T12:30:29.421Z,5.57
2019-01-12T12:32:57.843Z,5.37
2019-01-12T12:35:25.767Z,5.93
2019-01-12T12:37:55.948Z,5.13
2019-01-12T12:40:25.402Z,5.63
2019-01-12T12:42:55.396Z,5.93
2019-01-12T12:45:30.089Z,5.37
2019-01-12T12:47:59.689Z,6.43
2019-01-12T12:50:27.567Z,5.80
2019-01-12T12:52:55.519Z,5.53
2019-01-12T12:55:23.720Z,6.57
2019-01-12T12:57:51.515Z,6.00
2019-01-12T13:00:24.184Z,5.70
2019-01-12T13:02:51.968Z,7.07
2019-01-12T13:05:20.113Z,6.93
2019-01-12T13:07:49.753Z,7.33
2019-01-12T13:10:25.257Z,6.03
2019-01-12T13:12:53.880Z,6.77
2019-01-12T13:15:21.714Z,7.30
2019-01-12T13:17:49.590Z,7.07
2019-01-12T13:20:18.299Z,5.70
2019-01-12T13:22:46.430Z,6.73
2019-01-12T13:25:16.768Z,7.17
2019-01-12T13:27:45.319Z,6.90
2019-01-12T13:30:22.952Z,7.20
2019-01-12T13:32:51.108Z,5.87
2019-01-12T13:35:19.143Z,6.57
2019-01-12T13:37:47.888Z,6.73
2019-01-12T13:40:19.239Z,5.90
2019-01-12T13:42:47.182Z,6.17
2019-01-12T13:45:17.027Z,6.03
2019-01-12T13:47:46.811Z,5.83
2019-01-12T13:50:17.724Z,6.07
2019-01-12T13:52:45.543Z,7.07
2019-01-12T13:55:14.682Z,6.20
2019-01-12T13:57:47.445Z,6.33
2019-01-12T14:00:40.019Z,5.50
2019-01-12T14:03:08.351Z,5.47
2019-01-12T14:05:36.474Z,5.60
2019-01-12T14:08:05.582Z,4.93
2019-01-12T14:10:33.433Z,5.90
2019-01-12T14:13:01.289Z,4.67
2019-01-12T14:15:29.146Z,5.43
2019-01-12T14:17:57.165Z,5.17
2019-01-12T14:20:31.715Z,4.63
2019-01-12T14:23:01.102Z,4.70
2019-01-12T14:25:28.945Z,4.50
2019-01-12T14:27:56.764Z,5.13
2019-01-12T14:30:24.826Z,4.53
2019-01-12T14:32:52.872Z,4.60
2019-01-12T14:35:20.829Z,5.30
2019-01-12T14:37:49.291Z,4.60
2019-01-12T14:40:18.314Z,4.97
2019-01-12T14:42:46.535Z,4.37
2019-01-12T14:45:22.210Z,4.97
2019-01-12T14:47:49.980Z,5.07
2019-01-12T14:50:17.848Z,4.87
2019-01-12T14:52:45.743Z,4.57
2019-01-12T14:55:16.149Z,6.13
2019-01-12T14:57:44.249Z,5.17
2019-01-12T15:00:18.300Z,5.23
2019-01-12T15:02:46.401Z,5.47
2019-01-12T15:05:16.775Z,4.63
2019-01-12T15:07:44.995Z,4.47
2019-01-12T15:10:15.632Z,4.80
2019-01-12T15:12:43.672Z,5.53
2019-01-12T15:15:12.361Z,4.67
2019-01-12T15:17:40.340Z,6.00
2019-01-12T15:20:14.888Z,5.00
2019-01-12T15:22:45.736Z,5.03
2019-01-12T15:25:14.974Z,5.57
2019-01-12T15:27:44.601Z,5.43
2019-01-12T15:30:19.468Z,4.30
2019-01-12T15:32:47.375Z,4.77
2019-01-12T15:35:16.629Z,5.07
2019-01-12T15:37:44.702Z,4.83
2019-01-12T15:40:14.631Z,4.80
2019-01-12T15:42:43.791Z,5.00
2019-01-12T15:45:17.647Z,5.33
2019-01-12T15:47:45.581Z,5.63
2019-01-12T15:50:16.918Z,4.70
2019-01-12T15:52:45.660Z,5.67
2019-01-12T15:55:14.038Z,5.07
2019-01-12T15:57:41.826Z,4.00
2019-01-12T16:00:14.905Z,4.87
2019-01-12T16:02:42.896Z,5.13
2019-01-12T16:05:11.115Z,4.87
2019-01-12T16:07:39.007Z,4.80
2019-01-12T16:10:08.415Z,4.93
2019-01-12T16:12:36.228Z,5.00
2019-01-12T16:15:08.862Z,5.33
2019-01-12T16:17:36.813Z,4.93
2019-01-12T16:20:10.882Z,4.73
2019-01-12T16:22:38.744Z,4.70
2019-01-12T16:25:07.323Z,4.50
2019-01-12T16:27:35.129Z,4.83
2019-01-12T16:30:04.719Z,4.47
2019-01-12T16:32:32.666Z,4.20
2019-01-12T16:35:00.499Z,5.10
2019-01-12T16:37:28.422Z,4.07
2019-01-12T16:39:57.530Z,4.50
2019-01-12T16:42:27.151Z,4.57
2019-01-12T16:44:54.999Z,4.47
2019-01-12T16:47:22.853Z,4.60
2019-01-12T16:49:50.754Z,5.90
2019-01-12T16:52:20.510Z,5.60
2019-01-12T16:54:48.408Z,5.87
2019-01-12T16:57:17.594Z,5.37
2019-01-12T16:59:45.447Z,5.60
2019-01-12T17:02:13.313Z,4.83
2019-01-12T17:04:41.218Z,4.83
2019-01-12T17:07:10.887Z,4.87
2019-01-12T17:09:38.797Z,4.87
2019-01-12T17:12:06.947Z,4.50
2019-01-12T17:14:36.100Z,4.17
2019-01-12T17:17:04.157Z,3.70
2019-01-12T17:19:31.998Z,5.00
2019-01-12T17:22:01.464Z,4.27
2019-01-12T17:24:29.603Z,4.67
2019-01-12T17:26:58.706Z,4.50
2019-01-12T17:29:26.668Z,4.03
2019-01-12T17:31:56.468Z,5.00
2019-01-12T17:34:24.390Z,4.60
2019-01-12T17:36:58.751Z,4.43
2019-01-12T17:39:23.266Z,4.50
2019-01-12T17:41:51.179Z,5.33
2019-01-12T17:44:19.144Z,4.23
2019-01-12T17:46:47.090Z,4.17
2019-01-12T17:49:15.054Z,4.20
2019-01-12T17:51:43.034Z,4.17
2019-01-12T17:54:10.780Z,4.53
2019-01-12T17:56:38.784Z,4.70
2019-01-12T17:59:06.740Z,4.97
2019-01-12T18:01:34.617Z,4.23
2019-01-12T18:04:02.504Z,4.10
2019-01-12T18:06:30.423Z,3.97
2019-01-12T18:08:58.296Z,4.10
2019-01-12T18:11:26.201Z,4.40
2019-01-12T18:13:54.105Z,3.97
2019-01-12T18:16:21.996Z,3.67
2019-01-12T18:18:49.981Z,3.23
2019-01-12T18:21:18.021Z,3.07
2019-01-12T18:23:45.940Z,3.73
2019-01-12T18:26:13.988Z,3.37
2019-01-12T18:28:41.960Z,2.70
2019-01-12T18:31:09.947Z,2.93
2019-01-12T18:33:37.877Z,2.83
2019-01-12T18:36:05.737Z,2.37
2019-01-12T18:38:34.975Z,2.27
2019-01-12T18:41:02.807Z,1.93
2019-01-12T18:43:30.770Z,2.37
2019-01-12T18:45:58.622Z,2.10
2019-01-12T18:48:26.424Z,2.13
2019-01-12T18:50:54.274Z,2.17
2019-01-12T18:53:22.071Z,2.50
2019-01-12T18:55:49.936Z,2.40
2019-01-12T18:58:17.847Z,2.30
2019-01-12T19:00:45.817Z,2.40
2019-01-12T19:03:13.685Z,2.63
2019-01-12T19:05:41.751Z,2.30
2019-01-12T19:08:11.500Z,1.90
2019-01-12T19:10:39.478Z,2.00
2019-01-12T19:13:09.110Z,1.90
2019-01-12T19:15:36.957Z,1.47
2019-01-12T19:18:04.797Z,1.20
2019-01-12T19:20:32.594Z,1.37
2019-01-12T19:23:00.492Z,1.40
2019-01-12T19:25:28.419Z,1.80
2019-01-12T19:27:56.316Z,1.57
2019-01-12T19:30:24.242Z,1.60
2019-01-12T19:32:52.084Z,1.57
2019-01-12T19:35:20.041Z,1.40
2019-01-12T19:37:49.773Z,1.17
2019-01-12T19:40:21.076Z,1.30
2019-01-12T19:42:49.983Z,1.17
2019-01-12T19:45:17.942Z,1.23
2019-01-12T19:47:45.935Z,1.30
2019-01-12T19:50:23.211Z,1.10
2019-01-12T19:52:51.241Z,1.40
2019-01-12T19:55:19.144Z,0.90
2019-01-12T19:57:48.068Z,1.20
2019-01-12T20:00:28.381Z,1.10
2019-01-12T20:02:59.752Z,1.20
2019-01-12T20:05:27.663Z,1.20
2019-01-12T20:07:55.697Z,1.20
2019-01-12T20:10:23.744Z,1.13
2019-01-12T20:12:51.628Z,1.13
2019-01-12T20:15:22.692Z,1.20
2019-01-12T20:17:50.638Z,1.00
2019-01-12T20:20:18.516Z,1.10
2019-01-12T20:22:46.398Z,1.27
2019-01-12T20:25:24.500Z,1.13
2019-01-12T20:27:52.528Z,1.00
2019-01-12T20:31:17.385Z,1.03
2019-01-12T20:34:24.419Z,1.03
2019-01-12T20:38:07.719Z,1.03
2019-01-12T20:41:30.331Z,0.73
2019-01-12T20:44:57.053Z,1.00
2019-01-12T20:48:16.529Z,0.90
2019-01-12T20:51:58.505Z,1.10
2019-01-12T20:55:06.322Z,1.07
2019-01-12T20:58:12.124Z,1.10
2019-01-12T21:02:02.459Z,0.80
2019-01-12T21:05:30.475Z,0.97
2019-01-12T21:09:06.721Z,1.20
2019-01-12T21:12:59.735Z,1.00
2019-01-12T21:15:35.115Z,1.17
2019-01-12T21:18:03.066Z,1.17
2019-01-12T21:20:31.496Z,1.40
2019-01-12T21:22:59.424Z,1.40
2019-01-12T21:25:27.258Z,1.40
2019-01-12T21:27:57.245Z,1.80
2019-01-12T21:30:25.158Z,1.90
2019-01-12T21:32:53.075Z,1.53
2019-01-12T21:35:20.888Z,2.30
2019-01-12T21:37:48.777Z,1.60
2019-01-12T21:40:16.666Z,2.00
2019-01-12T21:42:44.783Z,1.53
2019-01-12T21:45:13.622Z,1.60
2019-01-12T21:47:41.699Z,1.00
2019-01-12T21:50:12.589Z,1.00
2019-01-12T21:52:40.735Z,0.90
2019-01-12T21:55:09.243Z,1.23
2019-01-12T21:57:39.277Z,1.17
2019-01-12T22:00:12.031Z,0.80
2019-01-12T22:02:39.921Z,0.87
2019-01-12T22:05:09.032Z,1.00
2019-01-12T22:07:36.842Z,1.40
2019-01-12T22:10:06.930Z,0.60
2019-01-12T22:12:34.787Z,1.03
2019-01-12T22:15:03.259Z,0.90
2019-01-12T22:17:31.051Z,0.57
2019-01-12T22:19:58.922Z,0.83
2019-01-12T22:22:28.663Z,0.70
